sensor_id;sensor_type;location;lat;lon;timestamp;temperature;humidity
64869;DHT22;51349;52.424;10.840;2024-03-06T00:03:40;2.80;99.90
64869;DHT22;51349;52.424;10.840;2024-03-06T00:08:40;2.80;99.90
64869;DHT22;51349;52.424;10.840;2024-03-06T00:13:41;2.80;99.90
64869;DHT22;51349;52.424;10.840;2024-03-06T00:18:42;2.70;99.90
64869;DHT22;51349;52.424;10.840;2024-03-06T00:23:42;2.70;99.90
64869;DHT22;51349;52.424;10.840;2024-03-06T00:28:43;2.70;99.90
64869;DHT22;51349;52.424;10.840;2024-03-06T00:33:44;2.70;99.90
64869;DHT22;51349;52.424;10.840;2024-03-06T00:38:45;2.70;99.90
64869;DHT22;51349;52.424;10.840;2024-03-06T00:43:45;2.70;99.90
64869;DHT22;51349;52.424;10.840;2024-03-06T00:48:46;2.70;99.90
64869;DHT22;51349;52.424;10.840;2024-03-06T00:53:47;2.70;99.90
64869;DHT22;51349;52.424;10.840;2024-03-06T00:58:47;2.70;99.90
64869;DHT22;51349;52.424;10.840;2024-03-06T01:03:48;2.70;99.90
64869;DHT22;51349;52.424;10.840;2024-03-06T01:08:49;2.70;99.90
64869;DHT22;51349;52.424;10.840;2024-03-06T01:13:50;2.70;99.90
64869;DHT22;51349;52.424;10.840;2024-03-06T01:18:50;2.70;99.90
64869;DHT22;51349;52.424;10.840;2024-03-06T01:23:51;2.70;99.90
64869;DHT22;51349;52.424;10.840;2024-03-06T01:28:51;2.70;99.90
64869;DHT22;51349;52.424;10.840;2024-03-06T01:33:52;2.70;99.90
64869;DHT22;51349;52.424;10.840;2024-03-06T01:38:53;2.70;99.90
64869;DHT22;51349;52.424;10.840;2024-03-06T01:43:54;2.70;99.90
64869;DHT22;51349;52.424;10.840;2024-03-06T01:48:55;2.60;99.90
64869;DHT22;51349;52.424;10.840;2024-03-06T01:53:57;2.60;99.90
64869;DHT22;51349;52.424;10.840;2024-03-06T01:58:58;2.60;99.90
64869;DHT22;51349;52.424;10.840;2024-03-06T02:03:59;2.60;99.90
64869;DHT22;51349;52.424;10.840;2024-03-06T02:09:01;2.60;99.90
64869;DHT22;51349;52.424;10.840;2024-03-06T02:14:03;2.50;99.90
64869;DHT22;51349;52.424;10.840;2024-03-06T02:19:05;2.50;99.90
64869;DHT22;51349;52.424;10.840;2024-03-06T02:24:05;2.50;99.90
64869;DHT22;51349;52.424;10.840;2024-03-06T02:29:06;2.50;99.90
64869;DHT22;51349;52.424;10.840;2024-03-06T02:34:07;2.50;99.90
64869;DHT22;51349;52.424;10.840;2024-03-06T02:39:08;2.40;99.90
64869;DHT22;51349;52.424;10.840;2024-03-06T02:44:09;2.40;99.90
64869;DHT22;51349;52.424;10.840;2024-03-06T02:49:09;2.40;99.90
64869;DHT22;51349;52.424;10.840;2024-03-06T02:54:10;2.40;99.90
64869;DHT22;51349;52.424;10.840;2024-03-06T02:59:11;2.40;99.90
64869;DHT22;51349;52.424;10.840;2024-03-06T03:04:11;2.30;99.90
64869;DHT22;51349;52.424;10.840;2024-03-06T03:09:12;2.40;99.90
64869;DHT22;51349;52.424;10.840;2024-03-06T03:14:13;2.30;99.90
64869;DHT22;51349;52.424;10.840;2024-03-06T03:19:13;2.30;99.90
64869;DHT22;51349;52.424;10.840;2024-03-06T03:24:14;2.20;99.90
64869;DHT22;51349;52.424;10.840;2024-03-06T03:29:15;2.20;99.90
64869;DHT22;51349;52.424;10.840;2024-03-06T03:34:15;2.10;99.90
64869;DHT22;51349;52.424;10.840;2024-03-06T03:39:16;2.20;99.90
64869;DHT22;51349;52.424;10.840;2024-03-06T03:44:17;2.10;99.90
64869;DHT22;51349;52.424;10.840;2024-03-06T03:49:21;2.10;99.90
64869;DHT22;51349;52.424;10.840;2024-03-06T03:54:21;2.20;99.90
64869;DHT22;51349;52.424;10.840;2024-03-06T03:59:22;2.10;99.90
64869;DHT22;51349;52.424;10.840;2024-03-06T04:04:23;2.10;99.90
64869;DHT22;51349;52.424;10.840;2024-03-06T04:09:24;2.10;99.90
64869;DHT22;51349;52.424;10.840;2024-03-06T04:14:24;2.10;99.90
64869;DHT22;51349;52.424;10.840;2024-03-06T04:19:27;2.10;99.90
64869;DHT22;51349;52.424;10.840;2024-03-06T04:24:27;2.00;99.90
64869;DHT22;51349;52.424;10.840;2024-03-06T04:29:28;2.00;99.90
64869;DHT22;51349;52.424;10.840;2024-03-06T04:34:28;2.00;99.90
64869;DHT22;51349;52.424;10.840;2024-03-06T04:39:29;1.90;99.90
64869;DHT22;51349;52.424;10.840;2024-03-06T04:44:36;1.90;99.90
64869;DHT22;51349;52.424;10.840;2024-03-06T04:49:36;1.90;99.90
64869;DHT22;51349;52.424;10.840;2024-03-06T04:54:37;1.90;99.90
64869;DHT22;51349;52.424;10.840;2024-03-06T04:59:38;1.80;99.90
64869;DHT22;51349;52.424;10.840;2024-03-06T05:04:38;1.80;99.90
64869;DHT22;51349;52.424;10.840;2024-03-06T05:09:39;1.70;99.90
64869;DHT22;51349;52.424;10.840;2024-03-06T05:14:41;1.70;99.90
64869;DHT22;51349;52.424;10.840;2024-03-06T05:19:42;1.60;99.90
64869;DHT22;51349;52.424;10.840;2024-03-06T05:24:43;1.60;99.90
64869;DHT22;51349;52.424;10.840;2024-03-06T05:29:44;1.50;99.90
64869;DHT22;51349;52.424;10.840;2024-03-06T05:34:45;1.50;99.90
64869;DHT22;51349;52.424;10.840;2024-03-06T05:39:45;1.50;99.90
64869;DHT22;51349;52.424;10.840;2024-03-06T05:44:46;1.40;99.90
64869;DHT22;51349;52.424;10.840;2024-03-06T05:49:49;1.40;99.90
64869;DHT22;51349;52.424;10.840;2024-03-06T05:54:49;1.40;99.90
64869;DHT22;51349;52.424;10.840;2024-03-06T05:59:51;1.40;99.90
64869;DHT22;51349;52.424;10.840;2024-03-06T06:04:51;1.40;99.90
64869;DHT22;51349;52.424;10.840;2024-03-06T06:09:52;1.30;99.90
64869;DHT22;51349;52.424;10.840;2024-03-06T06:14:53;1.40;99.90
64869;DHT22;51349;52.424;10.840;2024-03-06T06:19:55;1.40;99.90
64869;DHT22;51349;52.424;10.840;2024-03-06T06:24:55;1.40;99.90
64869;DHT22;51349;52.424;10.840;2024-03-06T06:29:57;1.40;99.90
64869;DHT22;51349;52.424;10.840;2024-03-06T06:34:58;1.50;99.90
64869;DHT22;51349;52.424;10.840;2024-03-06T06:39:59;1.50;99.90
64869;DHT22;51349;52.424;10.840;2024-03-06T06:45:00;1.50;99.90
64869;DHT22;51349;52.424;10.840;2024-03-06T06:50:01;1.40;99.90
64869;DHT22;51349;52.424;10.840;2024-03-06T06:55:06;1.40;99.90
64869;DHT22;51349;52.424;10.840;2024-03-06T07:00:07;1.50;99.90
64869;DHT22;51349;52.424;10.840;2024-03-06T07:05:11;1.50;99.90
64869;DHT22;51349;52.424;10.840;2024-03-06T07:10:12;1.50;99.90
64869;DHT22;51349;52.424;10.840;2024-03-06T07:15:14;1.60;99.90
64869;DHT22;51349;52.424;10.840;2024-03-06T07:20:14;1.70;99.90
64869;DHT22;51349;52.424;10.840;2024-03-06T07:25:15;1.70;99.90
64869;DHT22;51349;52.424;10.840;2024-03-06T07:30:16;1.80;99.90
64869;DHT22;51349;52.424;10.840;2024-03-06T07:35:17;1.90;99.90
64869;DHT22;51349;52.424;10.840;2024-03-06T07:40:18;2.00;99.90
64869;DHT22;51349;52.424;10.840;2024-03-06T07:45:19;2.30;99.90
64869;DHT22;51349;52.424;10.840;2024-03-06T07:50:20;2.70;99.90
64869;DHT22;51349;52.424;10.840;2024-03-06T07:55:21;3.00;99.90
64869;DHT22;51349;52.424;10.840;2024-03-06T08:00:23;3.40;99.90
64869;DHT22;51349;52.424;10.840;2024-03-06T08:05:23;3.80;99.90
64869;DHT22;51349;52.424;10.840;2024-03-06T08:10:24;4.20;99.90
64869;DHT22;51349;52.424;10.840;2024-03-06T08:15:25;4.80;99.90
64869;DHT22;51349;52.424;10.840;2024-03-06T08:20:25;4.80;99.90
64869;DHT22;51349;52.424;10.840;2024-03-06T08:25:28;5.00;99.90
64869;DHT22;51349;52.424;10.840;2024-03-06T08:30:29;5.50;99.90
64869;DHT22;51349;52.424;10.840;2024-03-06T08:35:31;5.60;99.90
64869;DHT22;51349;52.424;10.840;2024-03-06T08:40:32;5.60;99.90
64869;DHT22;51349;52.424;10.840;2024-03-06T08:45:34;6.10;99.90
64869;DHT22;51349;52.424;10.840;2024-03-06T08:50:35;6.50;99.90
64869;DHT22;51349;52.424;10.840;2024-03-06T08:55:35;7.40;99.90
64869;DHT22;51349;52.424;10.840;2024-03-06T09:00:36;8.20;99.90
64869;DHT22;51349;52.424;10.840;2024-03-06T09:05:37;9.00;99.90
64869;DHT22;51349;52.424;10.840;2024-03-06T09:10:38;9.20;99.90
64869;DHT22;51349;52.424;10.840;2024-03-06T09:15:39;9.20;99.90
64869;DHT22;51349;52.424;10.840;2024-03-06T09:20:40;9.40;99.90
64869;DHT22;51349;52.424;10.840;2024-03-06T09:25:41;10.70;99.90
64869;DHT22;51349;52.424;10.840;2024-03-06T09:30:42;10.60;99.90
64869;DHT22;51349;52.424;10.840;2024-03-06T09:35:43;10.90;99.90
64869;DHT22;51349;52.424;10.840;2024-03-06T09:40:45;12.60;99.90
64869;DHT22;51349;52.424;10.840;2024-03-06T09:45:48;12.40;99.90
64869;DHT22;51349;52.424;10.840;2024-03-06T09:50:51;13.50;99.90
64869;DHT22;51349;52.424;10.840;2024-03-06T09:55:56;12.80;99.90
64869;DHT22;51349;52.424;10.840;2024-03-06T10:01:01;11.20;99.90
64869;DHT22;51349;52.424;10.840;2024-03-06T10:06:08;11.40;99.90
64869;DHT22;51349;52.424;10.840;2024-03-06T10:11:09;11.80;99.90
64869;DHT22;51349;52.424;10.840;2024-03-06T10:16:10;10.50;99.90
64869;DHT22;51349;52.424;10.840;2024-03-06T10:21:11;11.80;99.90
64869;DHT22;51349;52.424;10.840;2024-03-06T10:26:14;13.00;99.90
64869;DHT22;51349;52.424;10.840;2024-03-06T10:31:15;11.70;99.90
64869;DHT22;51349;52.424;10.840;2024-03-06T10:36:26;12.30;99.90
64869;DHT22;51349;52.424;10.840;2024-03-06T10:41:29;15.40;99.90
64869;DHT22;51349;52.424;10.840;2024-03-06T10:46:34;17.30;99.80
64869;DHT22;51349;52.424;10.840;2024-03-06T10:51:36;16.50;97.00
64869;DHT22;51349;52.424;10.840;2024-03-06T10:56:41;17.00;96.70
64869;DHT22;51349;52.424;10.840;2024-03-06T11:01:44;17.50;93.10
64869;DHT22;51349;52.424;10.840;2024-03-06T11:06:47;18.30;93.30
64869;DHT22;51349;52.424;10.840;2024-03-06T11:11:52;17.40;90.20
64869;DHT22;51349;52.424;10.840;2024-03-06T11:17:01;16.90;90.50
64869;DHT22;51349;52.424;10.840;2024-03-06T11:22:02;17.50;91.20
64869;DHT22;51349;52.424;10.840;2024-03-06T11:27:04;17.60;84.00
64869;DHT22;51349;52.424;10.840;2024-03-06T11:32:07;18.10;88.40
64869;DHT22;51349;52.424;10.840;2024-03-06T11:37:08;20.50;89.70
64869;DHT22;51349;52.424;10.840;2024-03-06T11:42:13;19.00;83.20
64869;DHT22;51349;52.424;10.840;2024-03-06T11:47:14;18.20;80.20
64869;DHT22;51349;52.424;10.840;2024-03-06T11:52:15;19.70;76.80
64869;DHT22;51349;52.424;10.840;2024-03-06T11:57:15;20.70;80.10
64869;DHT22;51349;52.424;10.840;2024-03-06T12:02:19;21.60;75.90
64869;DHT22;51349;52.424;10.840;2024-03-06T12:07:20;22.20;76.40
64869;DHT22;51349;52.424;10.840;2024-03-06T12:12:20;21.70;73.30
64869;DHT22;51349;52.424;10.840;2024-03-06T12:17:21;21.30;72.50
64869;DHT22;51349;52.424;10.840;2024-03-06T12:22:25;22.50;73.00
64869;DHT22;51349;52.424;10.840;2024-03-06T12:27:26;22.90;70.10
64869;DHT22;51349;52.424;10.840;2024-03-06T12:32:26;22.70;69.30
64869;DHT22;51349;52.424;10.840;2024-03-06T12:37:30;20.80;70.90
64869;DHT22;51349;52.424;10.840;2024-03-06T12:42:34;22.90;71.60
64869;DHT22;51349;52.424;10.840;2024-03-06T12:47:35;23.70;65.30
64869;DHT22;51349;52.424;10.840;2024-03-06T12:52:35;21.40;67.20
64869;DHT22;51349;52.424;10.840;2024-03-06T12:57:36;23.10;66.10
64869;DHT22;51349;52.424;10.840;2024-03-06T13:02:37;21.60;68.50
64869;DHT22;51349;52.424;10.840;2024-03-06T13:07:38;20.80;68.40
64869;DHT22;51349;52.424;10.840;2024-03-06T13:12:38;21.60;65.70
64869;DHT22;51349;52.424;10.840;2024-03-06T13:17:39;20.90;68.90
64869;DHT22;51349;52.424;10.840;2024-03-06T13:22:40;18.90;67.60
64869;DHT22;51349;52.424;10.840;2024-03-06T13:27:41;17.80;68.10
64869;DHT22;51349;52.424;10.840;2024-03-06T13:32:42;16.00;71.00
64869;DHT22;51349;52.424;10.840;2024-03-06T13:37:48;17.70;70.30
64869;DHT22;51349;52.424;10.840;2024-03-06T13:42:51;16.60;68.90
64869;DHT22;51349;52.424;10.840;2024-03-06T13:47:52;17.60;71.40
64869;DHT22;51349;52.424;10.840;2024-03-06T13:52:52;17.10;70.90
64869;DHT22;51349;52.424;10.840;2024-03-06T13:57:53;15.90;73.10
64869;DHT22;51349;52.424;10.840;2024-03-06T14:02:54;15.60;74.30
64869;DHT22;51349;52.424;10.840;2024-03-06T14:07:54;15.20;77.00
64869;DHT22;51349;52.424;10.840;2024-03-06T14:12:55;14.80;75.80
64869;DHT22;51349;52.424;10.840;2024-03-06T14:17:57;14.50;80.00
64869;DHT22;51349;52.424;10.840;2024-03-06T14:22:57;14.10;80.00
64869;DHT22;51349;52.424;10.840;2024-03-06T14:27:58;13.60;80.90
64869;DHT22;51349;52.424;10.840;2024-03-06T14:32:59;13.30;82.70
64869;DHT22;51349;52.424;10.840;2024-03-06T14:37:59;13.50;84.70
64869;DHT22;51349;52.424;10.840;2024-03-06T14:43:00;13.50;84.70
64869;DHT22;51349;52.424;10.840;2024-03-06T14:48:02;12.30;84.10
64869;DHT22;51349;52.424;10.840;2024-03-06T14:53:03;13.10;85.30
64869;DHT22;51349;52.424;10.840;2024-03-06T14:58:05;13.10;84.50
64869;DHT22;51349;52.424;10.840;2024-03-06T15:03:06;12.80;86.70
64869;DHT22;51349;52.424;10.840;2024-03-06T15:08:08;13.10;87.70
64869;DHT22;51349;52.424;10.840;2024-03-06T15:13:08;12.70;86.90
64869;DHT22;51349;52.424;10.840;2024-03-06T15:18:13;12.80;86.30
64869;DHT22;51349;52.424;10.840;2024-03-06T15:23:14;12.70;87.60
64869;DHT22;51349;52.424;10.840;2024-03-06T15:28:15;12.60;86.90
64869;DHT22;51349;52.424;10.840;2024-03-06T15:33:16;12.10;86.50
64869;DHT22;51349;52.424;10.840;2024-03-06T15:38:17;11.40;88.80
64869;DHT22;51349;52.424;10.840;2024-03-06T15:43:17;10.60;90.60
64869;DHT22;51349;52.424;10.840;2024-03-06T15:48:18;10.60;91.70
64869;DHT22;51349;52.424;10.840;2024-03-06T15:53:19;10.30;91.60
64869;DHT22;51349;52.424;10.840;2024-03-06T15:58:20;9.90;92.90
64869;DHT22;51349;52.424;10.840;2024-03-06T16:03:21;9.80;93.60
64869;DHT22;51349;52.424;10.840;2024-03-06T16:08:22;9.70;94.20
64869;DHT22;51349;52.424;10.840;2024-03-06T16:13:29;9.70;94.40
64869;DHT22;51349;52.424;10.840;2024-03-06T16:18:33;9.30;95.10
64869;DHT22;51349;52.424;10.840;2024-03-06T16:23:37;8.90;95.00
64869;DHT22;51349;52.424;10.840;2024-03-06T16:28:38;8.80;95.70
64869;DHT22;51349;52.424;10.840;2024-03-06T16:33:39;8.30;96.50
64869;DHT22;51349;52.424;10.840;2024-03-06T16:38:40;8.30;96.70
64869;DHT22;51349;52.424;10.840;2024-03-06T16:43:41;8.10;97.10
64869;DHT22;51349;52.424;10.840;2024-03-06T16:48:42;8.00;97.90
64869;DHT22;51349;52.424;10.840;2024-03-06T16:53:42;7.80;98.40
64869;DHT22;51349;52.424;10.840;2024-03-06T16:58:43;7.60;99.10
64869;DHT22;51349;52.424;10.840;2024-03-06T17:03:44;7.40;99.90
64869;DHT22;51349;52.424;10.840;2024-03-06T17:08:46;7.30;99.90
64869;DHT22;51349;52.424;10.840;2024-03-06T17:13:46;7.10;99.90
64869;DHT22;51349;52.424;10.840;2024-03-06T17:18:47;7.00;99.90
64869;DHT22;51349;52.424;10.840;2024-03-06T17:23:48;6.90;99.90
64869;DHT22;51349;52.424;10.840;2024-03-06T17:28:52;6.70;99.90
64869;DHT22;51349;52.424;10.840;2024-03-06T17:33:53;6.50;99.90
64869;DHT22;51349;52.424;10.840;2024-03-06T17:38:54;6.10;99.90
64869;DHT22;51349;52.424;10.840;2024-03-06T17:43:55;5.80;99.90
64869;DHT22;51349;52.424;10.840;2024-03-06T17:48:55;5.60;99.90
64869;DHT22;51349;52.424;10.840;2024-03-06T17:53:56;5.50;99.90
64869;DHT22;51349;52.424;10.840;2024-03-06T17:59:03;5.20;99.90
64869;DHT22;51349;52.424;10.840;2024-03-06T18:04:07;5.00;99.90
64869;DHT22;51349;52.424;10.840;2024-03-06T18:09:09;4.80;99.90
64869;DHT22;51349;52.424;10.840;2024-03-06T18:14:16;4.70;99.90
64869;DHT22;51349;52.424;10.840;2024-03-06T18:19:16;4.50;99.90
64869;DHT22;51349;52.424;10.840;2024-03-06T18:24:17;4.20;99.90
64869;DHT22;51349;52.424;10.840;2024-03-06T18:29:18;4.00;99.90
64869;DHT22;51349;52.424;10.840;2024-03-06T18:34:18;3.80;99.90
64869;DHT22;51349;52.424;10.840;2024-03-06T18:39:19;3.80;99.90
64869;DHT22;51349;52.424;10.840;2024-03-06T18:44:20;3.50;99.90
64869;DHT22;51349;52.424;10.840;2024-03-06T18:49:20;3.30;99.90
64869;DHT22;51349;52.424;10.840;2024-03-06T18:54:22;3.30;99.90
64869;DHT22;51349;52.424;10.840;2024-03-06T18:59:23;3.20;99.90
64869;DHT22;51349;52.424;10.840;2024-03-06T19:04:23;3.00;99.90
64869;DHT22;51349;52.424;10.840;2024-03-06T19:09:25;2.90;99.90
64869;DHT22;51349;52.424;10.840;2024-03-06T19:14:26;2.70;99.90
64869;DHT22;51349;52.424;10.840;2024-03-06T19:19:27;2.60;99.90
64869;DHT22;51349;52.424;10.840;2024-03-06T19:24:28;2.60;99.90
64869;DHT22;51349;52.424;10.840;2024-03-06T19:29:29;2.40;99.90
64869;DHT22;51349;52.424;10.840;2024-03-06T19:34:31;2.40;99.90
64869;DHT22;51349;52.424;10.840;2024-03-06T19:39:31;2.30;99.90
64869;DHT22;51349;52.424;10.840;2024-03-06T19:44:32;2.40;99.90
64869;DHT22;51349;52.424;10.840;2024-03-06T19:49:33;2.40;99.90
64869;DHT22;51349;52.424;10.840;2024-03-06T19:54:36;2.50;99.90
64869;DHT22;51349;52.424;10.840;2024-03-06T19:59:37;2.50;99.90
64869;DHT22;51349;52.424;10.840;2024-03-06T20:04:38;2.70;99.90
64869;DHT22;51349;52.424;10.840;2024-03-06T20:09:39;2.70;99.90
64869;DHT22;51349;52.424;10.840;2024-03-06T20:14:41;2.60;99.90
64869;DHT22;51349;52.424;10.840;2024-03-06T20:19:42;2.70;99.90
64869;DHT22;51349;52.424;10.840;2024-03-06T20:24:42;2.70;99.90
64869;DHT22;51349;52.424;10.840;2024-03-06T20:29:43;2.80;99.90
64869;DHT22;51349;52.424;10.840;2024-03-06T20:34:44;2.70;99.90
64869;DHT22;51349;52.424;10.840;2024-03-06T20:39:45;2.60;99.90
64869;DHT22;51349;52.424;10.840;2024-03-06T20:44:46;2.70;99.90
64869;DHT22;51349;52.424;10.840;2024-03-06T20:49:46;2.80;99.90
64869;DHT22;51349;52.424;10.840;2024-03-06T20:54:47;2.90;99.90
64869;DHT22;51349;52.424;10.840;2024-03-06T20:59:48;3.00;99.90
64869;DHT22;51349;52.424;10.840;2024-03-06T21:04:51;3.00;99.90
64869;DHT22;51349;52.424;10.840;2024-03-06T21:09:52;3.00;99.90
64869;DHT22;51349;52.424;10.840;2024-03-06T21:14:52;3.00;99.90
64869;DHT22;51349;52.424;10.840;2024-03-06T21:19:58;3.00;99.90
64869;DHT22;51349;52.424;10.840;2024-03-06T21:24:59;3.00;99.90
64869;DHT22;51349;52.424;10.840;2024-03-06T21:29:59;3.10;99.90
64869;DHT22;51349;52.424;10.840;2024-03-06T21:35:00;3.20;99.90
64869;DHT22;51349;52.424;10.840;2024-03-06T21:40:02;3.20;99.90
64869;DHT22;51349;52.424;10.840;2024-03-06T21:45:04;3.20;99.90
64869;DHT22;51349;52.424;10.840;2024-03-06T21:50:05;3.20;99.90
64869;DHT22;51349;52.424;10.840;2024-03-06T21:55:06;3.20;99.90
64869;DHT22;51349;52.424;10.840;2024-03-06T22:00:07;3.20;99.90
64869;DHT22;51349;52.424;10.840;2024-03-06T22:05:09;3.10;99.90
64869;DHT22;51349;52.424;10.840;2024-03-06T22:10:10;3.00;99.90
64869;DHT22;51349;52.424;10.840;2024-03-06T22:15:11;3.00;99.90
64869;DHT22;51349;52.424;10.840;2024-03-06T22:20:12;3.00;99.90
64869;DHT22;51349;52.424;10.840;2024-03-06T22:25:13;3.10;99.90
64869;DHT22;51349;52.424;10.840;2024-03-06T22:30:14;3.10;99.90
64869;DHT22;51349;52.424;10.840;2024-03-06T22:35:14;3.10;99.90
64869;DHT22;51349;52.424;10.840;2024-03-06T22:40:15;3.10;99.90
64869;DHT22;51349;52.424;10.840;2024-03-06T22:45:16;2.80;99.90
64869;DHT22;51349;52.424;10.840;2024-03-06T22:50:17;2.80;99.90
64869;DHT22;51349;52.424;10.840;2024-03-06T22:55:17;2.70;99.90
64869;DHT22;51349;52.424;10.840;2024-03-06T23:00:18;2.70;99.90
64869;DHT22;51349;52.424;10.840;2024-03-06T23:05:29;2.60;99.90
64869;DHT22;51349;52.424;10.840;2024-03-06T23:10:30;2.50;99.90
64869;DHT22;51349;52.424;10.840;2024-03-06T23:15:30;2.30;99.90
64869;DHT22;51349;52.424;10.840;2024-03-06T23:20:31;2.30;99.90
64869;DHT22;51349;52.424;10.840;2024-03-06T23:25:32;2.40;99.90
64869;DHT22;51349;52.424;10.840;2024-03-06T23:30:33;2.30;99.90
64869;DHT22;51349;52.424;10.840;2024-03-06T23:35:35;2.10;99.90
64869;DHT22;51349;52.424;10.840;2024-03-06T23:40:36;1.90;99.90
64869;DHT22;51349;52.424;10.840;2024-03-06T23:45:36;1.80;99.90
64869;DHT22;51349;52.424;10.840;2024-03-06T23:50:37;1.60;99.90
64869;DHT22;51349;52.424;10.840;2024-03-06T23:55:38;1.70;99.90
